DLH9HE EDDF-EDDS
Flight info
| Callsign | DLH9HE |
|---|---|
| Flight time | 0h 22m |
| Altitude | 17000 |
| Route | ANEKI2L/18 ANEKI Y163 NEKLO Y171 INKAM N850 KRH T128 BADSO BADSO2A |
| Aircraft | A359/H-SDE2E3GHIJ3J4J5LM1ORWXY/LB1D1 |
Departure
| Time | 2026-05-06 17:26 |
|---|---|
| Airport | Frankfurt Main Airport (EDDF) |
Arrival
| Time | 2026-05-06 17:48 |
|---|---|
| Airport | Stuttgart Airport (EDDS) |
| Time | Latitude | Longitude | Altitude | Speed | Heading |
|---|---|---|---|---|---|
| 2026-05-06 16:53 | 50.03244 | 8.57184 | 363 ft | 0 kts | 205° |
| 2026-05-06 17:17 | 50.03258 | 8.57195 | 369 ft | 4 kts | 204° |
| 2026-05-06 17:17 | 50.03282 | 8.57212 | 365 ft | 4 kts | 204° |
| 2026-05-06 17:17 | 50.03303 | 8.57227 | 366 ft | 4 kts | 207° |
| 2026-05-06 17:18 | 50.03322 | 8.57250 | 369 ft | 4 kts | 248° |
| 2026-05-06 17:18 | 50.03323 | 8.57287 | 368 ft | 4 kts | 291° |
| 2026-05-06 17:18 | 50.03313 | 8.57323 | 368 ft | 4 kts | 295° |
| 2026-05-06 17:18 | 50.03302 | 8.57359 | 365 ft | 2 kts | 295° |
| 2026-05-06 17:19 | 50.03301 | 8.57362 | 365 ft | 0 kts | 295° |
| 2026-05-06 17:21 | 50.03301 | 8.57361 | 365 ft | 1 kts | 295° |
| 2026-05-06 17:21 | 50.03314 | 8.57316 | 365 ft | 9 kts | 295° |
| 2026-05-06 17:21 | 50.03349 | 8.57200 | 367 ft | 16 kts | 291° |
| 2026-05-06 17:21 | 50.03326 | 8.56994 | 364 ft | 24 kts | 252° |
| 2026-05-06 17:22 | 50.03259 | 8.56717 | 363 ft | 32 kts | 250° |
| 2026-05-06 17:22 | 50.03176 | 8.56366 | 362 ft | 37 kts | 250° |
| 2026-05-06 17:22 | 50.03080 | 8.55955 | 359 ft | 43 kts | 250° |
| 2026-05-06 17:22 | 50.02970 | 8.55506 | 358 ft | 46 kts | 249° |
| 2026-05-06 17:23 | 50.02853 | 8.55023 | 357 ft | 49 kts | 250° |
| 2026-05-06 17:23 | 50.02732 | 8.54518 | 355 ft | 50 kts | 250° |
| 2026-05-06 17:23 | 50.02623 | 8.54013 | 352 ft | 49 kts | 249° |
| 2026-05-06 17:23 | 50.02505 | 8.53515 | 354 ft | 49 kts | 250° |
| 2026-05-06 17:24 | 50.02394 | 8.53058 | 351 ft | 42 kts | 249° |
| 2026-05-06 17:24 | 50.02324 | 8.52770 | 353 ft | 9 kts | 249° |
| 2026-05-06 17:24 | 50.02323 | 8.52764 | 342 ft | 0 kts | 249° |
| 2026-05-06 17:25 | 50.02313 | 8.52726 | 345 ft | 18 kts | 249° |
| 2026-05-06 17:25 | 50.02235 | 8.52609 | 339 ft | 0 kts | 182° |
| 2026-05-06 17:25 | 50.02184 | 8.52606 | 338 ft | 39 kts | 181° |
| 2026-05-06 17:26 | 50.01499 | 8.52606 | 337 ft | 155 kts | 180° |
| 2026-05-06 17:26 | 50.00174 | 8.52683 | 757 ft | 216 kts | 179° |
| 2026-05-06 17:26 | 49.98545 | 8.52763 | 1616 ft | 253 kts | 181° |
| 2026-05-06 17:26 | 49.96630 | 8.52851 | 2648 ft | 295 kts | 180° |
| 2026-05-06 17:27 | 49.94408 | 8.52975 | 3329 ft | 343 kts | 180° |
| 2026-05-06 17:27 | 49.91929 | 8.53142 | 3691 ft | 365 kts | 179° |
| 2026-05-06 17:27 | 49.89481 | 8.53326 | 3820 ft | 353 kts | 179° |
| 2026-05-06 17:27 | 49.86941 | 8.53510 | 3798 ft | 368 kts | 179° |
| 2026-05-06 17:28 | 49.84463 | 8.53695 | 3862 ft | 360 kts | 179° |
| 2026-05-06 17:28 | 49.81974 | 8.53874 | 4389 ft | 354 kts | 179° |
| 2026-05-06 17:28 | 49.79530 | 8.54050 | 5616 ft | 348 kts | 179° |
| 2026-05-06 17:28 | 49.77115 | 8.54019 | 7100 ft | 337 kts | 186° |
| 2026-05-06 17:29 | 49.74833 | 8.53740 | 8582 ft | 329 kts | 187° |
| 2026-05-06 17:29 | 49.72557 | 8.53428 | 10111 ft | 321 kts | 187° |
| 2026-05-06 17:29 | 49.70335 | 8.53123 | 11151 ft | 330 kts | 186° |
| 2026-05-06 17:29 | 49.67979 | 8.52803 | 12019 ft | 342 kts | 187° |
| 2026-05-06 17:30 | 49.65573 | 8.52479 | 12552 ft | 362 kts | 186° |
| 2026-05-06 17:30 | 49.62975 | 8.52132 | 12771 ft | 389 kts | 186° |
| 2026-05-06 17:30 | 49.60184 | 8.51761 | 12796 ft | 416 kts | 186° |
| 2026-05-06 17:30 | 49.57327 | 8.51388 | 12800 ft | 394 kts | 186° |
| 2026-05-06 17:31 | 49.54516 | 8.51021 | 12804 ft | 419 kts | 186° |
| 2026-05-06 17:31 | 49.51628 | 8.50644 | 13110 ft | 411 kts | 186° |
| 2026-05-06 17:31 | 49.48800 | 8.50274 | 13768 ft | 408 kts | 186° |
| 2026-05-06 17:31 | 49.45984 | 8.49905 | 14403 ft | 410 kts | 185° |
| 2026-05-06 17:32 | 49.43132 | 8.49531 | 14732 ft | 407 kts | 185° |
| 2026-05-06 17:32 | 49.40253 | 8.49155 | 14993 ft | 426 kts | 185° |
| 2026-05-06 17:32 | 49.37311 | 8.49042 | 14876 ft | 408 kts | 177° |
| 2026-05-06 17:32 | 49.34504 | 8.49777 | 14813 ft | 422 kts | 165° |
| 2026-05-06 17:33 | 49.31778 | 8.51621 | 14792 ft | 423 kts | 149° |
| 2026-05-06 17:33 | 49.29444 | 8.54119 | 14810 ft | 395 kts | 148° |
| 2026-05-06 17:33 | 49.27084 | 8.55969 | 14820 ft | 370 kts | 152° |
| 2026-05-06 17:33 | 49.25164 | 8.58470 | 14554 ft | 360 kts | 134° |
| 2026-05-06 17:34 | 49.23624 | 8.61502 | 13660 ft | 366 kts | 126° |
| 2026-05-06 17:34 | 49.22190 | 8.64804 | 12464 ft | 377 kts | 125° |
| 2026-05-06 17:34 | 49.20705 | 8.68140 | 11531 ft | 381 kts | 126° |
| 2026-05-06 17:34 | 49.19212 | 8.71472 | 11019 ft | 376 kts | 125° |
| 2026-05-06 17:35 | 49.17775 | 8.74690 | 10840 ft | 357 kts | 127° |
| 2026-05-06 17:35 | 49.16424 | 8.77720 | 10824 ft | 334 kts | 126° |
| 2026-05-06 17:35 | 49.15157 | 8.80563 | 10827 ft | 313 kts | 127° |
| 2026-05-06 17:36 | 49.12792 | 8.85853 | 10821 ft | 298 kts | 127° |
| 2026-05-06 17:36 | 49.11623 | 8.88459 | 10822 ft | 298 kts | 127° |
| 2026-05-06 17:36 | 49.10451 | 8.91072 | 10822 ft | 298 kts | 126° |
| 2026-05-06 17:36 | 49.09282 | 8.93680 | 10821 ft | 298 kts | 126° |
| 2026-05-06 17:37 | 49.08111 | 8.96292 | 10822 ft | 298 kts | 127° |
| 2026-05-06 17:37 | 49.06941 | 8.98899 | 10824 ft | 299 kts | 127° |
| 2026-05-06 17:37 | 49.05763 | 9.01517 | 10821 ft | 298 kts | 126° |
| 2026-05-06 17:37 | 49.04593 | 9.04118 | 10824 ft | 298 kts | 126° |
| 2026-05-06 17:38 | 49.03422 | 9.06719 | 10810 ft | 297 kts | 126° |
| 2026-05-06 17:38 | 49.02250 | 9.09322 | 10826 ft | 297 kts | 127° |
| 2026-05-06 17:38 | 49.01077 | 9.11920 | 10807 ft | 297 kts | 127° |
| 2026-05-06 17:38 | 48.99909 | 9.14509 | 10762 ft | 294 kts | 127° |
| 2026-05-06 17:39 | 48.98758 | 9.17057 | 10330 ft | 293 kts | 126° |
| 2026-05-06 17:39 | 48.97598 | 9.19621 | 9857 ft | 294 kts | 127° |
| 2026-05-06 17:39 | 48.96435 | 9.22188 | 9376 ft | 293 kts | 126° |
| 2026-05-06 17:39 | 48.95287 | 9.24725 | 9046 ft | 290 kts | 127° |
| 2026-05-06 17:40 | 48.94138 | 9.27248 | 8628 ft | 290 kts | 126° |
| 2026-05-06 17:40 | 48.93020 | 9.29725 | 8232 ft | 289 kts | 127° |
| 2026-05-06 17:40 | 48.91863 | 9.32270 | 7803 ft | 289 kts | 127° |
| 2026-05-06 17:40 | 48.90725 | 9.34767 | 7392 ft | 287 kts | 127° |
| 2026-05-06 17:41 | 48.89575 | 9.37187 | 6915 ft | 285 kts | 132° |
| 2026-05-06 17:41 | 48.88223 | 9.39360 | 6498 ft | 281 kts | 138° |
| 2026-05-06 17:41 | 48.86823 | 9.41419 | 6088 ft | 280 kts | 138° |
| 2026-05-06 17:41 | 48.85418 | 9.43448 | 5645 ft | 278 kts | 139° |
| 2026-05-06 17:42 | 48.84023 | 9.45478 | 5174 ft | 277 kts | 139° |
| 2026-05-06 17:42 | 48.82621 | 9.47528 | 4759 ft | 275 kts | 139° |
| 2026-05-06 17:42 | 48.81256 | 9.49535 | 4304 ft | 273 kts | 138° |
| 2026-05-06 17:42 | 48.79903 | 9.51509 | 4039 ft | 274 kts | 139° |
| 2026-05-06 17:43 | 48.78530 | 9.53524 | 3993 ft | 275 kts | 139° |
| 2026-05-06 17:43 | 48.77072 | 9.55349 | 3998 ft | 266 kts | 154° |
| 2026-05-06 17:43 | 48.75382 | 9.56065 | 4013 ft | 238 kts | 184° |
| 2026-05-06 17:43 | 48.73859 | 9.55654 | 4007 ft | 215 kts | 201° |
| 2026-05-06 17:44 | 48.72613 | 9.54604 | 4013 ft | 197 kts | 229° |
| 2026-05-06 17:44 | 48.72012 | 9.52826 | 4016 ft | 193 kts | 256° |
| 2026-05-06 17:44 | 48.71904 | 9.50800 | 3999 ft | 197 kts | 281° |
| 2026-05-06 17:44 | 48.72345 | 9.48846 | 3952 ft | 194 kts | 290° |
| 2026-05-06 17:45 | 48.72903 | 9.47008 | 3651 ft | 194 kts | 291° |
| 2026-05-06 17:45 | 48.73220 | 9.45052 | 3510 ft | 193 kts | 270° |
| 2026-05-06 17:45 | 48.73011 | 9.43046 | 3505 ft | 192 kts | 252° |
| 2026-05-06 17:45 | 48.72594 | 9.41111 | 3480 ft | 195 kts | 252° |
| 2026-05-06 17:46 | 48.72193 | 9.39157 | 3250 ft | 194 kts | 254° |
| 2026-05-06 17:46 | 48.71831 | 9.37193 | 2972 ft | 192 kts | 254° |
| 2026-05-06 17:46 | 48.71465 | 9.35262 | 2724 ft | 190 kts | 253° |
| 2026-05-06 17:46 | 48.71104 | 9.33371 | 2479 ft | 182 kts | 254° |
| 2026-05-06 17:47 | 48.70763 | 9.31569 | 2227 ft | 174 kts | 253° |
| 2026-05-06 17:47 | 48.70434 | 9.29837 | 1958 ft | 168 kts | 253° |
| 2026-05-06 17:47 | 48.70119 | 9.28172 | 1724 ft | 160 kts | 252° |
| 2026-05-06 17:47 | 48.69819 | 9.26594 | 1517 ft | 157 kts | 254° |
| 2026-05-06 17:48 | 48.69523 | 9.25024 | 1314 ft | 154 kts | 253° |
| 2026-05-06 17:48 | 48.69238 | 9.23536 | 1213 ft | 137 kts | 253° |
| 2026-05-06 17:48 | 48.69056 | 9.22584 | 1232 ft | 73 kts | 253° |
| 2026-05-06 17:48 | 48.68949 | 9.21998 | 1253 ft | 38 kts | 256° |
| 2026-05-06 17:49 | 48.68962 | 9.21624 | 1265 ft | 34 kts | 284° |
| 2026-05-06 17:49 | 48.68990 | 9.21453 | 1271 ft | 8 kts | 284° |
| 2026-05-06 17:49 | 48.69001 | 9.21371 | 1269 ft | 8 kts | 275° |
| 2026-05-06 17:49 | 48.68993 | 9.21296 | 1274 ft | 8 kts | 258° |
| 2026-05-06 17:50 | 48.68976 | 9.21211 | 1274 ft | 9 kts | 253° |
| 2026-05-06 17:50 | 48.68957 | 9.21112 | 1277 ft | 10 kts | 254° |
| 2026-05-06 17:50 | 48.68937 | 9.21001 | 1276 ft | 12 kts | 255° |
| 2026-05-06 17:50 | 48.68914 | 9.20877 | 1279 ft | 13 kts | 253° |
| 2026-05-06 17:51 | 48.68897 | 9.20770 | 1282 ft | 6 kts | 267° |
| 2026-05-06 17:51 | 48.68922 | 9.20693 | 1287 ft | 25 kts | 303° |
| 2026-05-06 17:51 | 48.69049 | 9.20489 | 1293 ft | 15 kts | 310° |
| 2026-05-06 17:51 | 48.69053 | 9.20393 | 1297 ft | 8 kts | 255° |
| 2026-05-06 17:52 | 48.69041 | 9.20321 | 1300 ft | 7 kts | 255° |
| 2026-05-06 17:52 | 48.69026 | 9.20243 | 1303 ft | 11 kts | 253° |
| 2026-05-06 17:52 | 48.69000 | 9.20109 | 1307 ft | 14 kts | 253° |
| 2026-05-06 17:52 | 48.68994 | 9.20034 | 1309 ft | 1 kts | 304° |
| 2026-05-06 17:53 | 48.69004 | 9.20022 | 1310 ft | 7 kts | 321° |
| 2026-05-06 17:53 | 48.69046 | 9.19994 | 1313 ft | 4 kts | 344° |
| 2026-05-06 17:53 | 48.69058 | 9.19989 | 1313 ft | 0 kts | 344° |